createdAt,value
2022-10-14T00:02:32.906Z,75.74
2022-10-14T00:05:35.757Z,76.13
2022-10-14T00:08:40.464Z,76.16
2022-10-14T00:11:43.367Z,76.27
2022-10-14T00:14:46.356Z,76.03
2022-10-14T00:17:49.269Z,75.95
2022-10-14T00:20:55.820Z,75.84
2022-10-14T00:23:59.964Z,76.01
2022-10-14T00:27:02.781Z,75.69
2022-10-14T00:30:06.219Z,75.98
2022-10-14T00:33:09.299Z,76.58
2022-10-14T00:36:14.232Z,76.08
2022-10-14T00:39:18.445Z,76.16
2022-10-14T00:42:21.060Z,75.85
2022-10-14T00:45:25.463Z,75.78
2022-10-14T00:48:28.017Z,75.75
2022-10-14T00:51:30.977Z,75.32
2022-10-14T00:54:38.701Z,75.53
2022-10-14T00:57:41.678Z,76.89
2022-10-14T01:00:44.385Z,75.91
2022-10-14T01:03:47.366Z,76.48
2022-10-14T01:07:01.386Z,75.88
2022-10-14T01:10:12.438Z,76.36
2022-10-14T01:13:25.802Z,76.08
2022-10-14T01:16:37.975Z,76.38
2022-10-14T01:20:17.700Z,75.95
2022-10-14T01:23:48.956Z,75.82
2022-10-14T01:27:15.139Z,75.51
2022-10-14T01:30:20.625Z,76.13
2022-10-14T01:33:26.508Z,76.34
2022-10-14T01:36:33.573Z,76.04
2022-10-14T01:39:43.484Z,76.01
2022-10-14T01:42:48.578Z,75.76
2022-10-14T01:45:55.435Z,76.14
2022-10-14T01:49:03.827Z,76.14
2022-10-14T01:52:10.048Z,75.94
2022-10-14T01:55:18.759Z,76.18
2022-10-14T01:58:24.597Z,75.98
2022-10-14T02:01:28.936Z,75.81
2022-10-14T02:04:31.617Z,75.62
2022-10-14T02:07:40.447Z,75.78
2022-10-14T02:11:08.047Z,75.58
2022-10-14T02:14:23.316Z,76.01
2022-10-14T02:17:31.337Z,75.69
2022-10-14T02:20:37.411Z,75.76
2022-10-14T02:23:44.096Z,75.99
2022-10-14T02:26:48.430Z,76.35
2022-10-14T02:29:53.188Z,76.79
2022-10-14T02:32:58.443Z,76.80
2022-10-14T02:36:03.091Z,76.19
2022-10-14T02:39:08.916Z,76.11
2022-10-14T02:42:11.666Z,76.38
2022-10-14T02:45:15.639Z,76.15
2022-10-14T02:48:19.704Z,76.15
2022-10-14T02:51:22.263Z,76.23
2022-10-14T02:54:24.986Z,75.66
2022-10-14T02:57:27.590Z,76.56
2022-10-14T03:00:30.372Z,77.42
2022-10-14T03:03:34.618Z,77.02
2022-10-14T03:06:37.220Z,77.45
2022-10-14T03:09:39.939Z,76.85
2022-10-14T03:12:42.504Z,77.30
2022-10-14T03:15:45.241Z,77.41
2022-10-14T03:18:49.167Z,77.04
2022-10-14T03:21:51.942Z,77.40
2022-10-14T03:24:54.473Z,77.09
2022-10-14T03:27:57.230Z,76.94
2022-10-14T03:30:59.780Z,77.15
2022-10-14T03:34:04.594Z,76.83
2022-10-14T03:37:07.748Z,77.55
2022-10-14T03:40:11.648Z,77.29
2022-10-14T03:43:14.307Z,77.79
2022-10-14T03:46:17.154Z,77.11
2022-10-14T03:49:21.084Z,76.82
2022-10-14T03:52:24.132Z,77.36
2022-10-14T03:55:26.982Z,78.22
2022-10-14T03:58:29.553Z,80.80
2022-10-14T04:01:32.223Z,79.43
2022-10-14T04:04:36.202Z,79.00
2022-10-14T04:07:39.055Z,79.32
2022-10-14T04:10:41.672Z,78.83
2022-10-14T04:13:45.293Z,78.78
2022-10-14T04:16:50.023Z,78.66
2022-10-14T04:19:54.570Z,78.34
2022-10-14T04:23:00.308Z,78.60
2022-10-14T04:26:04.579Z,77.88
2022-10-14T04:29:07.465Z,77.50
2022-10-14T04:32:10.306Z,77.57
2022-10-14T04:35:14.649Z,77.88
2022-10-14T04:38:17.202Z,78.45
2022-10-14T04:41:19.912Z,78.69
2022-10-14T04:44:22.591Z,78.03
2022-10-14T04:47:25.206Z,78.69
2022-10-14T04:50:29.450Z,78.56
2022-10-14T04:53:32.004Z,77.91
2022-10-14T04:56:34.726Z,77.78
2022-10-14T04:59:37.291Z,78.48
2022-10-14T05:02:40.113Z,78.27
2022-10-14T05:05:44.042Z,77.88
2022-10-14T05:08:46.896Z,78.09
2022-10-14T05:11:49.470Z,78.10
2022-10-14T05:14:52.204Z,78.47
2022-10-14T05:17:54.799Z,78.59
2022-10-14T05:21:00.679Z,78.57
2022-10-14T05:24:03.324Z,78.45
2022-10-14T05:27:05.952Z,78.83
2022-10-14T05:30:09.790Z,79.06
2022-10-14T05:33:13.164Z,78.78
2022-10-14T05:36:17.096Z,78.39
2022-10-14T05:39:19.807Z,78.62
2022-10-14T05:42:23.070Z,79.01
2022-10-14T05:45:26.679Z,78.81
2022-10-14T05:48:29.306Z,78.05
2022-10-14T05:51:33.658Z,78.46
2022-10-14T05:54:36.819Z,78.40
2022-10-14T05:57:39.438Z,78.55
2022-10-14T06:00:42.258Z,78.56
2022-10-14T06:03:44.891Z,79.03
2022-10-14T06:06:49.548Z,79.27
2022-10-14T06:09:52.701Z,78.55
2022-10-14T06:12:55.271Z,79.05
2022-10-14T06:15:57.992Z,79.08
2022-10-14T06:19:00.600Z,78.86
2022-10-14T06:22:04.669Z,79.00
2022-10-14T06:25:07.875Z,79.16
2022-10-14T06:28:11.304Z,79.07
2022-10-14T06:31:14.049Z,79.51
2022-10-14T06:34:16.769Z,79.67
2022-10-14T06:37:20.703Z,79.48
2022-10-14T06:40:23.419Z,79.50
2022-10-14T06:43:26.083Z,79.56
2022-10-14T06:46:28.800Z,79.84
2022-10-14T06:49:31.324Z,79.97
2022-10-14T06:52:35.253Z,78.95
2022-10-14T06:55:38.204Z,80.60
2022-10-14T06:58:40.982Z,80.70
2022-10-14T07:01:43.612Z,80.24
2022-10-14T07:04:46.333Z,79.89
2022-10-14T07:07:52.269Z,80.38
2022-10-14T07:10:55.088Z,80.56
2022-10-14T07:13:58.881Z,80.39
2022-10-14T07:17:01.508Z,81.12
2022-10-14T07:20:04.320Z,80.86
2022-10-14T07:23:08.364Z,80.49
2022-10-14T07:26:10.967Z,80.53
2022-10-14T07:29:13.620Z,80.91
2022-10-14T07:32:16.179Z,80.38
2022-10-14T07:35:20.098Z,80.86
2022-10-14T07:38:24.080Z,80.12
2022-10-14T07:41:26.729Z,80.39
2022-10-14T07:44:29.475Z,79.95
2022-10-14T07:47:33.271Z,80.31
2022-10-14T07:50:35.855Z,79.47
2022-10-14T07:53:39.997Z,79.28
2022-10-14T07:56:46.378Z,79.69
2022-10-14T07:59:49.199Z,79.62
2022-10-14T08:02:51.779Z,78.71
2022-10-14T08:06:00.428Z,77.72
2022-10-14T08:09:08.803Z,78.09
2022-10-14T08:12:11.804Z,78.05
2022-10-14T08:15:14.509Z,76.05
2022-10-14T08:18:17.217Z,74.80
2022-10-14T08:21:22.027Z,75.10
2022-10-14T08:24:26.186Z,74.96
2022-10-14T08:27:28.765Z,74.87
2022-10-14T08:30:31.497Z,74.45
2022-10-14T08:33:34.275Z,73.91
2022-10-14T08:36:36.834Z,74.51
2022-10-14T08:39:40.903Z,74.15
2022-10-14T08:42:51.849Z,73.90
2022-10-14T08:45:59.821Z,73.38
2022-10-14T08:49:08.663Z,72.51
2022-10-14T08:52:16.404Z,72.20
2022-10-14T08:55:28.897Z,71.94
2022-10-14T08:58:34.262Z,71.16
2022-10-14T09:01:46.815Z,69.72
2022-10-14T09:04:49.859Z,69.46
2022-10-14T09:07:54.985Z,70.27
2022-10-14T09:10:59.739Z,69.06
2022-10-14T09:14:03.703Z,69.02
2022-10-14T09:17:10.009Z,68.38
2022-10-14T09:20:20.086Z,67.36
2022-10-14T09:23:24.567Z,64.13
2022-10-14T09:26:38.629Z,63.38
2022-10-14T09:29:46.405Z,63.64
2022-10-14T09:32:51.933Z,63.77
2022-10-14T09:35:54.641Z,63.23
2022-10-14T09:38:59.951Z,62.68
2022-10-14T09:42:14.469Z,61.50
2022-10-14T09:45:19.850Z,61.73
2022-10-14T09:48:32.732Z,59.48
2022-10-14T09:51:36.100Z,60.01
2022-10-14T09:54:38.802Z,57.95
2022-10-14T09:57:43.038Z,60.25
2022-10-14T10:00:47.257Z,61.29
2022-10-14T10:03:51.761Z,58.97
2022-10-14T10:06:56.390Z,57.83
2022-10-14T10:10:01.513Z,56.31
2022-10-14T10:13:06.197Z,54.89
2022-10-14T10:16:19.977Z,55.41
2022-10-14T10:19:29.000Z,55.77
2022-10-14T10:22:36.644Z,56.59
2022-10-14T10:25:39.354Z,56.69
2022-10-14T10:28:47.305Z,57.59
2022-10-14T10:32:07.073Z,57.55
2022-10-14T10:35:23.709Z,57.19
2022-10-14T10:38:31.734Z,58.15
2022-10-14T10:41:50.538Z,57.78
2022-10-14T10:45:07.338Z,57.70
2022-10-14T10:48:18.546Z,58.46
2022-10-14T10:51:30.498Z,58.69
2022-10-14T10:54:44.538Z,58.61
2022-10-14T10:58:01.605Z,57.84
2022-10-14T11:01:19.085Z,57.91
2022-10-14T11:04:34.332Z,57.18
2022-10-14T11:08:05.159Z,54.55
2022-10-14T11:11:37.078Z,55.82
2022-10-14T11:15:15.619Z,56.63
2022-10-14T11:18:28.903Z,57.66
2022-10-14T11:21:40.904Z,57.42
2022-10-14T11:24:54.572Z,56.53
2022-10-14T11:28:05.499Z,54.33
2022-10-14T11:31:18.058Z,55.29
2022-10-14T11:34:39.064Z,52.92
2022-10-14T11:37:52.428Z,53.22
2022-10-14T11:41:01.865Z,53.53
2022-10-14T11:44:11.635Z,52.78
2022-10-14T11:47:20.469Z,53.51
2022-10-14T11:50:30.480Z,53.61
2022-10-14T11:53:46.165Z,52.32
2022-10-14T11:56:54.865Z,53.61
2022-10-14T12:00:17.929Z,54.61
2022-10-14T12:03:28.439Z,55.67
2022-10-14T12:06:41.703Z,55.07
2022-10-14T12:09:49.289Z,56.79
2022-10-14T12:12:52.882Z,56.96
2022-10-14T12:15:55.932Z,57.82
2022-10-14T12:18:59.285Z,58.09
2022-10-14T12:22:10.858Z,58.37
2022-10-14T12:25:17.377Z,59.41
2022-10-14T12:28:21.168Z,59.27
2022-10-14T12:31:35.749Z,58.64
2022-10-14T12:34:42.292Z,58.69
2022-10-14T12:37:54.368Z,60.46
2022-10-14T12:41:34.441Z,59.19
2022-10-14T12:44:45.671Z,57.98
2022-10-14T12:47:49.098Z,57.43
2022-10-14T12:50:58.486Z,57.40
2022-10-14T12:54:13.993Z,56.26
2022-10-14T12:57:27.425Z,55.80
2022-10-14T13:00:33.512Z,55.44
2022-10-14T13:03:44.548Z,56.24
2022-10-14T13:07:41.987Z,55.27
2022-10-14T13:10:48.061Z,56.12
2022-10-14T13:14:01.732Z,56.57
2022-10-14T13:17:25.227Z,57.03
2022-10-14T13:20:51.650Z,56.43
2022-10-14T13:23:55.670Z,56.64
2022-10-14T13:27:08.449Z,57.44
2022-10-14T13:30:20.424Z,57.01
2022-10-14T13:33:29.558Z,57.21
2022-10-14T13:36:38.000Z,58.21
2022-10-14T13:39:40.759Z,58.10
2022-10-14T13:42:47.168Z,57.43
2022-10-14T13:45:54.147Z,57.39
2022-10-14T13:48:59.293Z,57.27
2022-10-14T13:52:07.842Z,58.01
2022-10-14T13:55:17.055Z,57.89
2022-10-14T13:58:22.901Z,57.75
2022-10-14T14:01:32.235Z,58.06
2022-10-14T14:04:38.149Z,58.45
2022-10-14T14:08:21.659Z,58.34
2022-10-14T14:11:22.060Z,57.86
2022-10-14T14:14:32.520Z,58.37
2022-10-14T14:17:36.678Z,59.16
2022-10-14T14:20:39.284Z,59.03
2022-10-14T14:23:50.876Z,59.04
2022-10-14T14:26:56.015Z,59.44
2022-10-14T14:30:00.144Z,59.88
2022-10-14T14:33:05.220Z,60.19
2022-10-14T14:36:12.068Z,58.98
2022-10-14T14:39:23.819Z,58.16
2022-10-14T14:42:27.683Z,58.56
2022-10-14T14:45:36.214Z,57.48
2022-10-14T14:48:42.233Z,58.29
2022-10-14T14:51:46.187Z,58.18
2022-10-14T14:54:49.450Z,57.69
2022-10-14T14:57:57.868Z,58.28
2022-10-14T15:01:02.377Z,58.22
2022-10-14T15:04:11.937Z,58.02
2022-10-14T15:07:21.468Z,59.37
2022-10-14T15:10:26.936Z,60.39
2022-10-14T15:13:50.514Z,61.06
2022-10-14T15:16:54.631Z,60.57
2022-10-14T15:19:57.856Z,60.73
2022-10-14T15:23:00.635Z,60.97
2022-10-14T15:26:03.286Z,61.17
2022-10-14T15:29:17.826Z,62.05
2022-10-14T15:32:23.192Z,62.56
2022-10-14T15:35:26.621Z,63.08
2022-10-14T15:41:38.927Z,63.91
2022-10-14T15:44:41.494Z,64.00
2022-10-14T15:47:46.186Z,64.91
2022-10-14T15:50:49.025Z,65.13
2022-10-14T15:53:52.737Z,65.56
2022-10-14T16:00:03.977Z,66.27
2022-10-14T16:03:08.082Z,67.03
2022-10-14T16:06:10.724Z,67.63
2022-10-14T16:09:13.547Z,67.93
2022-10-14T16:12:16.711Z,68.05
2022-10-14T16:15:33.259Z,68.30
2022-10-14T16:18:37.288Z,68.61
2022-10-14T16:21:40.243Z,68.79
2022-10-14T16:24:43.137Z,69.13
2022-10-14T16:27:45.727Z,69.38
2022-10-14T16:30:50.088Z,69.49
2022-10-14T16:33:55.537Z,69.82
2022-10-14T16:36:58.130Z,69.62
2022-10-14T16:40:01.068Z,69.86
2022-10-14T16:43:03.846Z,70.00
2022-10-14T16:46:10.414Z,70.00
2022-10-14T16:49:17.270Z,70.40
2022-10-14T16:52:20.354Z,70.65
2022-10-14T16:55:23.949Z,70.55
2022-10-14T16:58:27.841Z,70.85
2022-10-14T17:01:30.674Z,70.70
2022-10-14T17:04:34.741Z,70.83
2022-10-14T17:07:37.302Z,70.93
2022-10-14T17:10:40.608Z,71.17
2022-10-14T17:13:43.353Z,71.01
2022-10-14T17:16:48.094Z,70.85
2022-10-14T17:19:53.867Z,71.18
2022-10-14T17:22:56.401Z,71.20
2022-10-14T17:25:59.239Z,71.47
2022-10-14T17:29:02.359Z,71.28
2022-10-14T17:32:05.107Z,71.10
2022-10-14T17:35:12.838Z,71.75
2022-10-14T17:38:17.792Z,71.26
2022-10-14T17:41:20.532Z,71.67
2022-10-14T17:44:23.499Z,71.57
2022-10-14T17:47:26.722Z,71.12
2022-10-14T17:50:30.806Z,71.21
2022-10-14T17:53:33.391Z,71.36
2022-10-14T17:56:37.536Z,71.46
2022-10-14T17:59:40.233Z,71.34
2022-10-14T18:02:42.860Z,71.33
2022-10-14T18:05:48.961Z,70.63
2022-10-14T18:08:53.737Z,70.99
2022-10-14T18:12:13.008Z,71.11
2022-10-14T18:15:16.078Z,70.34
2022-10-14T18:18:18.774Z,70.45
2022-10-14T18:21:23.081Z,69.93
2022-10-14T18:24:25.923Z,70.17
2022-10-14T18:27:28.625Z,70.45
2022-10-14T18:30:31.369Z,70.41
2022-10-14T18:33:35.555Z,70.60
2022-10-14T18:36:39.615Z,70.90
2022-10-14T18:39:42.301Z,70.75
2022-10-14T18:42:45.158Z,70.68
2022-10-14T18:45:47.881Z,70.26
2022-10-14T18:48:52.795Z,70.51
2022-10-14T18:51:56.733Z,70.62
2022-10-14T18:54:59.358Z,70.13
2022-10-14T18:58:02.081Z,70.11
2022-10-14T19:01:05.295Z,70.04
2022-10-14T19:04:09.417Z,70.15
2022-10-14T19:07:13.456Z,70.30
2022-10-14T19:10:16.178Z,70.41
2022-10-14T19:13:18.932Z,70.10
2022-10-14T19:16:23.468Z,70.29
2022-10-14T19:19:26.022Z,70.34
2022-10-14T19:22:30.053Z,69.34
2022-10-14T19:25:33.080Z,69.80
2022-10-14T19:28:35.996Z,70.07
2022-10-14T19:31:40.000Z,69.39
2022-10-14T19:34:47.054Z,69.36
2022-10-14T19:37:51.378Z,69.07
2022-10-14T19:40:53.992Z,69.32
2022-10-14T19:43:57.969Z,69.34
2022-10-14T19:47:00.815Z,69.12
2022-10-14T19:50:03.520Z,69.55
2022-10-14T19:53:07.590Z,69.65
2022-10-14T19:56:14.549Z,69.73
2022-10-14T19:59:17.273Z,69.67
2022-10-14T20:02:20.081Z,69.96
2022-10-14T20:05:23.016Z,69.66
2022-10-14T20:08:29.447Z,69.28
2022-10-14T20:11:32.305Z,69.99
2022-10-14T20:14:35.177Z,70.10
2022-10-14T20:17:37.869Z,70.00
2022-10-14T20:20:40.646Z,70.48
2022-10-14T20:23:46.441Z,70.06
2022-10-14T20:26:49.138Z,69.70
2022-10-14T20:29:51.955Z,69.78
2022-10-14T20:32:55.106Z,69.93
2022-10-14T20:36:01.970Z,70.02
2022-10-14T20:39:06.935Z,69.88
2022-10-14T20:42:09.613Z,69.44
2022-10-14T20:45:12.455Z,69.88
2022-10-14T20:48:15.339Z,70.18
2022-10-14T20:51:19.571Z,69.94
2022-10-14T20:54:24.140Z,69.37
2022-10-14T20:57:26.696Z,69.82
2022-10-14T21:00:32.790Z,69.90
2022-10-14T21:03:41.737Z,69.93
2022-10-14T21:06:44.733Z,70.26
2022-10-14T21:09:50.994Z,70.22
2022-10-14T21:12:53.642Z,70.54
2022-10-14T21:15:56.471Z,70.53
2022-10-14T21:19:01.865Z,70.67
2022-10-14T21:22:04.714Z,70.99
2022-10-14T21:25:09.638Z,70.72
2022-10-14T21:28:12.384Z,70.97
2022-10-14T21:31:19.277Z,71.37
2022-10-14T21:34:24.925Z,70.85
2022-10-14T21:37:27.750Z,70.59
2022-10-14T21:40:31.910Z,71.35
2022-10-14T21:43:39.020Z,70.46
2022-10-14T21:46:42.052Z,71.31
2022-10-14T21:49:45.012Z,71.00
2022-10-14T21:52:48.119Z,71.07
2022-10-14T21:55:54.502Z,71.22
2022-10-14T21:58:57.704Z,71.38
2022-10-14T22:02:00.639Z,70.99
2022-10-14T22:05:03.550Z,71.11
2022-10-14T22:08:06.378Z,71.27
2022-10-14T22:11:18.867Z,71.18
2022-10-14T22:14:23.552Z,71.16
2022-10-14T22:17:26.828Z,71.44
2022-10-14T22:20:29.847Z,71.35
2022-10-14T22:23:33.082Z,71.53
2022-10-14T22:26:40.940Z,71.16
2022-10-14T22:29:45.730Z,71.47
2022-10-14T22:32:48.698Z,71.16
2022-10-14T22:35:51.788Z,71.74
2022-10-14T22:38:56.068Z,71.25
2022-10-14T22:42:00.531Z,71.51
2022-10-14T22:45:03.369Z,72.17
2022-10-14T22:48:06.787Z,72.26
2022-10-14T22:51:11.695Z,71.28
2022-10-14T22:54:14.721Z,71.83
2022-10-14T22:57:21.862Z,71.28
2022-10-14T23:00:27.522Z,71.46
2022-10-14T23:03:31.020Z,71.30
2022-10-14T23:06:36.628Z,71.73
2022-10-14T23:09:39.782Z,71.32
2022-10-14T23:12:44.050Z,71.77
2022-10-14T23:15:56.248Z,70.65
2022-10-14T23:19:00.173Z,70.69
2022-10-14T23:22:05.432Z,70.54
2022-10-14T23:25:09.117Z,69.67
2022-10-14T23:28:13.355Z,70.70
2022-10-14T23:31:18.177Z,70.50
2022-10-14T23:34:21.357Z,70.34
2022-10-14T23:37:24.335Z,70.93
2022-10-14T23:40:27.608Z,70.95
2022-10-14T23:43:32.093Z,71.02
2022-10-14T23:46:35.062Z,70.80
2022-10-14T23:49:38.044Z,70.56
2022-10-14T23:52:40.831Z,71.59
2022-10-14T23:55:44.368Z,72.08
2022-10-14T23:58:50.268Z,71.47
